METAR AND TAF INFORMATION
METAR FOR UHPP
ADDS - METARS form results

(0449 UTC 25 January 2021)
Data provider http://aviationweather.gov/metar/data/
 
METAR text: UHPP 250430Z 00000MPS 9999 NSC M07/M20 Q1001 R34L/CLRD70 NOSIG RMK QFE747/0996
Conditions at: UHPP (PETROPAVLOVSK-KA, RU) observed 0430 UTC 25 January 2021
Temperature: -7.0°C (19°F)
Dewpoint: -20.0°C (-4°F) [RH = 35%]
Pressure (altimeter): 29.56 inches Hg (1001.0 mb)
Winds: calm
Visibility: 6 or more miles (10+ km)
Ceiling: at least 12,000 feet AGL
Clouds: sky clear below 12,000 feet AGL
Weather: no significant weather observed at this time

METAR text: UHPP 250400Z VRB01MPS 9999 NSC M08/M19 Q1001 R34L/CLRD70 NOSIG RMK QFE747/0996
Conditions at: UHPP (PETROPAVLOVSK-KA, RU) observed 0400 UTC 25 January 2021
Temperature: -8.0°C (18°F)
Dewpoint: -19.0°C (-2°F) [RH = 41%]
Pressure (altimeter): 29.56 inches Hg (1001.0 mb)
Winds: variable direction winds at 2 MPH (2 knots; 1.0 m/s)
Visibility: 6 or more miles (10+ km)
Ceiling: at least 12,000 feet AGL
Clouds: sky clear below 12,000 feet AGL
Weather: no significant weather observed at this time

Forecast for: UHPP (PETROPAVLOVSK-KA, RU)
Text: TAF UHPP 250148Z 2503/2609 35003G12MPS 9999 SCT040
Forecast period: 0300 UTC 25 January 2021 to 0900 UTC 26 January 2021
Forecast type: FROM: standard forecast or significant change
Winds: from the N (350 degrees) at 7 MPH (6 knots; 3.1 m/s)
gusting to 26 MPH (23 knots; 11.8 m/s)
Visibility: 6 or more miles (10+ km)
Ceiling: at least 12,000 feet AGL
Clouds: scattered clouds at 4000 feet AGL
Weather: no significant weather forecast for this period

 AIRPORT MAP

 RUNWAY INFORMATION

 AIRPORT FREQUENCIES
Type ARSA Name PETROPAVLO Frequency 119.4 MHZ
Type TWR Name PETROPAVLO Frequency 118.1 MHZ

 AIRPORT NEAR NAVIGATION AIDS
Type NDB Name Petropavlovsk-Kamchatsky Frequency 535 KHZ



2018 Air Astana Virtual Airline